Time;durP1;ratioP1;P1;durP2;ratioP2;P2;SDS_P1;SDS_P2;PMS_P1;PMS_P2;Temp;Humidity;BMP_temperature;BMP_pressure;BME280_temperature;BME280_humidity;BME280_pressure;Samples;Min_cycle;Max_cycle;Signal;HPM_P1;HPM_P2
2024/01/26 00:02:16;;;;;;;13.07;9.52;;;15.20;76.30;;;;;;4204772;28;20055;-51
2024/01/26 00:04:57;;;;;;;15.27;10.80;;;15.30;76.50;;;;;;4214051;27;20054;-50
2024/01/26 00:07:38;;;;;;;14.10;10.23;;;15.20;76.50;;;;;;4221347;27;20054;-50
2024/01/26 00:10:19;;;;;;;12.32;9.63;;;15.20;76.50;;;;;;4204631;28;20055;-48
2024/01/26 00:13:02;;;;;;;13.90;10.20;;;15.20;76.70;;;;;;4204602;28;20122;-48
2024/01/26 00:15:45;;;;;;;17.02;10.52;;;15.20;76.80;;;;;;4204567;28;20059;-51
2024/01/26 00:18:26;;;;;;;13.77;9.57;;;15.20;76.80;;;;;;4220551;27;20065;-49
2024/01/26 00:21:07;;;;;;;14.48;10.27;;;15.20;76.90;;;;;;4218230;27;20457;-51
2024/01/26 00:23:48;;;;;;;16.30;11.45;;;15.20;77.00;;;;;;4221285;27;20054;-49
2024/01/26 00:26:29;;;;;;;16.23;11.85;;;15.10;77.00;;;;;;4220367;27;20050;-47
2024/01/26 00:29:12;;;;;;;16.55;11.55;;;15.20;77.10;;;;;;4193861;27;20097;-48
2024/01/26 00:31:53;;;;;;;15.20;11.30;;;15.20;77.10;;;;;;4203804;28;20051;-48
2024/01/26 00:34:35;;;;;;;17.88;11.48;;;15.10;77.10;;;;;;4199062;28;20051;-51
2024/01/26 00:37:16;;;;;;;18.08;12.38;;;15.20;77.30;;;;;;4193561;27;20129;-49
2024/01/26 00:39:57;;;;;;;18.23;11.85;;;15.20;77.40;;;;;;4204057;27;20096;-51
2024/01/26 00:42:38;;;;;;;18.95;12.05;;;15.10;77.40;;;;;;4187234;28;20055;-52
2024/01/26 00:45:20;;;;;;;19.73;13.32;;;15.10;77.40;;;;;;4193635;27;20058;-48
2024/01/26 00:48:01;;;;;;;21.63;13.23;;;15.10;77.50;;;;;;4237752;27;20054;-49
2024/01/26 00:50:42;;;;;;;21.90;14.30;;;15.10;77.60;;;;;;4237970;27;20501;-47
2024/01/26 00:53:23;;;;;;;22.17;14.15;;;15.10;77.70;;;;;;4238248;27;20095;-51
2024/01/26 00:56:05;;;;;;;22.27;14.15;;;15.10;77.80;;;;;;4205661;28;20560;-48
2024/01/26 00:58:45;;;;;;;;;;;15.10;77.80;;;;;;4209871;27;20051;-48
2024/01/26 01:01:28;;;;;;;24.25;14.20;;;15.10;77.70;;;;;;4209041;27;19927;-51
2024/01/26 01:04:09;;;;;;;22.52;14.30;;;15.10;77.90;;;;;;4208764;27;20055;-49
2024/01/26 01:06:50;;;;;;;25.25;15.32;;;15.00;78.00;;;;;;4209397;27;20101;-51
2024/01/26 01:09:31;;;;;;;21.48;14.15;;;15.10;78.00;;;;;;4209557;27;20059;-48
2024/01/26 01:12:12;;;;;;;22.15;13.95;;;15.10;78.10;;;;;;4208993;27;20078;-50
2024/01/26 01:14:53;;;;;;;22.33;13.55;;;15.10;78.10;;;;;;4217715;27;20051;-51
2024/01/26 01:17:36;;;;;;;22.75;14.52;;;15.00;78.10;;;;;;4209078;28;20058;-51
2024/01/26 01:20:17;;;;;;;21.33;13.55;;;15.00;78.30;;;;;;4209988;27;20059;-49
2024/01/26 01:22:58;;;;;;;21.13;13.90;;;15.10;78.50;;;;;;4210448;27;20509;-48
2024/01/26 01:25:39;;;;;;;23.98;14.88;;;15.10;78.50;;;;;;4209459;27;20138;-48
2024/01/26 01:28:20;;;;;;;18.08;12.38;;;15.10;78.40;;;;;;4209570;27;20051;-48
2024/01/26 01:31:02;;;;;;;21.98;14.70;;;15.20;78.30;;;;;;4192506;28;20056;-48
2024/01/26 01:33:44;;;;;;;21.30;15.30;;;15.20;78.20;;;;;;4196932;28;20105;-48
2024/01/26 01:36:25;;;;;;;21.88;13.98;;;15.30;78.10;;;;;;4208070;27;20066;-47
2024/01/26 01:39:07;;;;;;;21.70;14.55;;;15.40;78.00;;;;;;4208603;27;20055;-48
2024/01/26 01:41:48;;;;;;;20.05;13.23;;;15.40;77.90;;;;;;4209467;28;20502;-48
2024/01/26 01:44:30;;;;;;;20.38;15.07;;;15.40;77.80;;;;;;4210089;27;20066;-48
2024/01/26 01:47:11;;;;;;;21.58;14.52;;;15.40;77.80;;;;;;4209540;27;20059;-49
2024/01/26 01:49:54;;;;;;;19.58;14.27;;;15.40;77.90;;;;;;4209459;27;20055;-48
2024/01/26 01:52:37;;;;;;;21.30;13.65;;;15.50;78.00;;;;;;4208974;27;20209;-50
2024/01/26 01:55:20;;;;;;;19.65;13.40;;;15.50;77.70;;;;;;4209644;27;20486;-48
2024/01/26 01:58:01;;;;;;;20.63;14.55;;;15.70;78.30;;;;;;4214342;27;20054;-49
2024/01/26 02:00:42;;;;;;;24.23;16.45;;;15.70;77.10;;;;;;4225506;27;20050;-49
2024/01/26 02:03:24;;;;;;;23.73;15.85;;;15.80;76.90;;;;;;4194170;27;20072;-62
2024/01/26 02:06:06;;;;;;;19.75;14.20;;;15.80;77.50;;;;;;4192386;28;20205;-62
2024/01/26 02:08:47;;;;;;;24.58;16.05;;;15.80;76.60;;;;;;4188615;28;20063;-62
2024/01/26 02:11:28;;;;;;;23.70;16.65;;;15.80;76.60;;;;;;4206703;28;20121;-62
2024/01/26 02:14:09;;;;;;;20.73;15.18;;;15.80;76.60;;;;;;4206762;27;20185;-62
2024/01/26 02:16:54;;;;;;;19.15;13.32;;;15.90;76.50;;;;;;4206996;28;20047;-62
2024/01/26 02:19:35;;;;;;;21.85;16.02;;;15.90;76.40;;;;;;4206627;28;20182;-62
2024/01/26 02:22:18;;;;;;;21.83;15.23;;;15.90;76.30;;;;;;4206833;28;20185;-62
2024/01/26 02:25:00;;;;;;;18.35;14.32;;;16.00;76.40;;;;;;4206753;28;20786;-62
2024/01/26 02:27:41;;;;;;;23.67;15.45;;;16.00;76.30;;;;;;4205768;28;20453;-62
2024/01/26 02:30:22;;;;;;;19.83;14.40;;;16.00;76.10;;;;;;4204832;28;20055;-62
2024/01/26 02:33:03;;;;;;;18.53;13.67;;;16.10;75.90;;;;;;4205928;28;20065;-62
2024/01/26 02:35:45;;;;;;;18.75;14.35;;;16.10;75.90;;;;;;4217998;27;20293;-62
2024/01/26 02:38:25;;;;;;;19.17;13.32;;;16.10;75.80;;;;;;4223211;27;20050;-62
2024/01/26 02:41:08;;;;;;;19.55;13.50;;;16.10;75.60;;;;;;4222514;27;20510;-62
2024/01/26 02:43:49;;;;;;;17.02;12.15;;;16.10;75.60;;;;;;4222502;27;20491;-62
2024/01/26 02:46:30;;;;;;;18.55;14.13;;;16.10;75.60;;;;;;4222253;27;20054;-62
2024/01/26 02:49:11;;;;;;;18.38;14.20;;;16.10;75.70;;;;;;4206033;27;20054;-62
2024/01/26 02:51:52;;;;;;;16.85;12.90;;;16.10;75.70;;;;;;4189219;28;20503;-62
2024/01/26 02:54:33;;;;;;;15.77;12.95;;;16.20;75.50;;;;;;4209596;27;20055;-62
2024/01/26 02:57:16;;;;;;;15.10;12.00;;;16.20;75.30;;;;;;4205393;28;20055;-62
2024/01/26 02:59:57;;;;;;;17.30;13.10;;;16.30;75.30;;;;;;4205702;28;20047;-62
2024/01/26 03:02:38;;;;;;;14.77;12.05;;;16.30;75.20;;;;;;4205049;28;20182;-62
2024/01/26 03:05:19;;;;;;;15.27;12.93;;;16.20;75.10;;;;;;4209611;27;20469;-62
2024/01/26 03:08:00;;;;;;;14.10;11.38;;;16.30;76.10;;;;;;4204440;27;20205;-62
2024/01/26 03:10:41;;;;;;;18.35;13.57;;;16.30;75.30;;;;;;4216964;27;20096;-62
2024/01/26 03:13:24;;;;;;;16.13;12.88;;;16.30;75.00;;;;;;4222673;27;20054;-62
2024/01/26 03:16:05;;;;;;;17.13;13.75;;;16.30;75.00;;;;;;4205627;28;20058;-60
2024/01/26 03:18:46;;;;;;;18.13;11.65;;;16.40;75.10;;;;;;4203899;28;20055;-62
2024/01/26 03:21:27;;;;;;;18.17;12.05;;;16.30;75.00;;;;;;4199558;27;20051;-62
2024/01/26 03:24:08;;;;;;;15.18;12.73;;;16.40;75.00;;;;;;4201315;27;20055;-62
2024/01/26 03:26:50;;;;;;;15.18;12.65;;;16.40;74.80;;;;;;4188996;28;20133;-62
2024/01/26 03:29:32;;;;;;;16.85;12.32;;;16.40;74.70;;;;;;4192345;27;20616;-62
2024/01/26 03:32:12;;;;;;;18.67;12.55;;;16.40;74.70;;;;;;4221932;27;20421;-62
2024/01/26 03:34:54;;;;;;;17.48;13.43;;;16.30;74.70;;;;;;4191860;27;20137;-62
2024/01/26 03:37:37;;;;;;;;;;;16.30;74.90;;;;;;4189832;27;20059;-62
2024/01/26 03:40:18;;;;;;;12.65;9.82;;;16.40;74.90;;;;;;4188308;28;19931;-62
2024/01/26 03:43:00;;;;;;;13.75;11.45;;;16.50;74.70;;;;;;4187044;28;20059;-63
2024/01/26 03:45:42;;;;;;;14.70;11.98;;;16.40;74.60;;;;;;4188188;28;20048;-61
2024/01/26 03:48:24;;;;;;;15.18;11.63;;;16.50;74.70;;;;;;4197880;27;20055;-62
2024/01/26 03:51:05;;;;;;;14.05;11.60;;;16.50;74.60;;;;;;4204328;28;20096;-63
2024/01/26 03:53:46;;;;;;;13.77;11.27;;;16.50;74.40;;;;;;4210270;27;20051;-62
2024/01/26 03:56:27;;;;;;;13.15;11.32;;;16.50;74.30;;;;;;4222240;27;20055;-62
2024/01/26 03:59:08;;;;;;;12.30;10.10;;;16.60;74.30;;;;;;4221330;27;20054;-62
2024/01/26 04:01:51;;;;;;;12.85;9.95;;;16.50;74.40;;;;;;4220845;27;20066;-62
2024/01/26 04:04:32;;;;;;;12.60;10.07;;;16.50;74.50;;;;;;4220810;27;20088;-62
2024/01/26 04:07:13;;;;;;;12.80;9.75;;;16.60;74.40;;;;;;4220534;27;20139;-62
2024/01/26 04:09:54;;;;;;;12.05;10.43;;;16.60;74.30;;;;;;4209484;27;20051;-62
2024/01/26 04:12:35;;;;;;;11.52;9.07;;;16.60;74.10;;;;;;4196334;27;20046;-62
2024/01/26 04:15:16;;;;;;;12.98;10.45;;;16.60;74.00;;;;;;4221052;27;20047;-62
2024/01/26 04:17:59;;;;;;;12.27;9.68;;;16.60;74.00;;;;;;4221056;27;20050;-62
2024/01/26 04:20:41;;;;;;;10.20;8.82;;;16.60;74.30;;;;;;4218733;27;20078;-62
2024/01/26 04:23:22;;;;;;;11.60;8.52;;;16.50;75.30;;;;;;4204040;28;20189;-62
2024/01/26 04:26:03;;;;;;;11.40;9.35;;;16.50;74.60;;;;;;4201921;28;20139;-61
2024/01/26 04:28:44;;;;;;;10.00;8.73;;;16.40;74.80;;;;;;4207227;27;20046;-63
2024/01/26 04:31:26;;;;;;;11.00;9.02;;;16.40;75.00;;;;;;4207281;28;20162;-60
2024/01/26 04:34:08;;;;;;;11.60;9.77;;;16.50;75.00;;;;;;4204345;28;20071;-62
2024/01/26 04:36:49;;;;;;;11.23;9.02;;;16.50;74.90;;;;;;4210572;27;20493;-62
2024/01/26 04:39:30;;;;;;;9.57;8.45;;;16.50;74.90;;;;;;4221208;27;20165;-62
2024/01/26 04:42:11;;;;;;;19.83;9.27;;;16.50;74.80;;;;;;4203963;28;20078;-62
2024/01/26 04:44:54;;;;;;;11.25;9.15;;;16.60;74.80;;;;;;4202722;28;20063;-62
2024/01/26 04:47:35;;;;;;;11.98;8.82;;;16.60;74.60;;;;;;4203481;28;20529;-52
2024/01/26 04:50:17;;;;;;;11.18;7.97;;;16.60;74.60;;;;;;4204367;28;20448;-62
2024/01/26 04:52:59;;;;;;;10.55;9.25;;;16.60;74.50;;;;;;4204002;28;20042;-62
2024/01/26 04:55:40;;;;;;;12.23;8.48;;;16.60;74.50;;;;;;4203689;28;20051;-62
2024/01/26 04:58:21;;;;;;;12.27;8.82;;;16.60;74.80;;;;;;4203210;28;20051;-63
2024/01/26 05:01:02;;;;;;;13.30;9.52;;;16.60;75.00;;;;;;4203789;28;20055;-62
2024/01/26 05:03:43;;;;;;;11.18;8.73;;;16.60;74.70;;;;;;4216939;27;20046;-62
2024/01/26 05:06:26;;;;;;;12.27;9.70;;;16.60;74.50;;;;;;4219289;27;20109;-59
2024/01/26 05:09:08;;;;;;;11.77;8.10;;;16.70;74.50;;;;;;4210460;27;20075;-61
2024/01/26 05:11:50;;;;;;;9.52;8.15;;;16.70;74.50;;;;;;4204162;28;20047;-50
2024/01/26 05:14:31;;;;;;;8.57;7.70;;;16.70;74.50;;;;;;4203073;28;20093;-50
2024/01/26 05:17:12;;;;;;;9.23;7.38;;;16.70;74.50;;;;;;4204038;28;20549;-51
2024/01/26 05:19:53;;;;;;;11.52;7.72;;;16.70;75.60;;;;;;4209723;28;20047;-62
2024/01/26 05:22:35;;;;;;;8.80;7.20;;;16.70;74.80;;;;;;4203856;28;20502;-63
2024/01/26 05:25:18;;;;;;;8.18;7.40;;;16.70;74.70;;;;;;4204053;28;20051;-63
2024/01/26 05:27:59;;;;;;;10.55;7.47;;;16.70;74.60;;;;;;4202530;28;20046;-62
2024/01/26 05:30:40;;;;;;;12.02;7.22;;;16.70;74.60;;;;;;4203717;28;20075;-62
2024/01/26 05:33:21;;;;;;;7.30;6.60;;;16.70;74.70;;;;;;4203345;28;20071;-62
2024/01/26 05:36:02;;;;;;;7.95;6.43;;;16.70;74.60;;;;;;4202276;28;20433;-62
2024/01/26 05:38:44;;;;;;;8.02;7.28;;;16.70;74.50;;;;;;4203336;28;20051;-62
2024/01/26 05:41:25;;;;;;;8.85;7.47;;;16.80;74.60;;;;;;4203510;28;20563;-63
2024/01/26 05:44:06;;;;;;;11.18;7.35;;;16.80;74.50;;;;;;4207014;28;20525;-62
2024/01/26 05:46:47;;;;;;;7.43;6.32;;;16.80;74.40;;;;;;4206842;28;20510;-63
2024/01/26 05:49:28;;;;;;;8.55;7.55;;;16.80;74.30;;;;;;4206463;28;20047;-51
2024/01/26 05:52:09;;;;;;;9.50;7.72;;;16.80;74.30;;;;;;4206522;28;20062;-50
2024/01/26 05:54:52;;;;;;;13.70;8.18;;;16.90;74.30;;;;;;4205217;28;20173;-51
2024/01/26 05:57:33;;;;;;;9.95;8.10;;;16.90;74.20;;;;;;4205097;28;20047;-55
2024/01/26 06:00:15;;;;;;;10.02;7.93;;;16.90;74.10;;;;;;4204335;28;20055;-48
2024/01/26 06:02:57;;;;;;;11.20;8.55;;;16.90;74.10;;;;;;4217828;27;20050;-52
2024/01/26 06:05:38;;;;;;;9.70;7.22;;;16.80;74.10;;;;;;4206917;27;20182;-48
2024/01/26 06:08:20;;;;;;;9.63;8.55;;;16.80;74.30;;;;;;4206565;27;20088;-49
2024/01/26 06:11:03;;;;;;;8.15;7.35;;;16.70;74.50;;;;;;4205328;28;20407;-48
2024/01/26 06:13:44;;;;;;;8.93;8.02;;;16.70;74.70;;;;;;4206829;28;20403;-50
2024/01/26 06:16:25;;;;;;;8.15;7.45;;;16.60;75.00;;;;;;4209822;27;20108;-49
2024/01/26 06:19:06;;;;;;;8.35;7.55;;;16.60;75.20;;;;;;4206125;28;20178;-62
2024/01/26 06:21:47;;;;;;;8.98;6.15;;;16.70;75.20;;;;;;4206011;28;20502;-62
2024/01/26 06:24:28;;;;;;;6.13;4.93;;;16.70;75.00;;;;;;4206754;28;20141;-62
2024/01/26 06:27:11;;;;;;;8.13;7.30;;;16.80;74.90;;;;;;4209351;27;20067;-62
2024/01/26 06:29:53;;;;;;;7.57;6.80;;;16.80;74.80;;;;;;4222566;27;20090;-62
2024/01/26 06:32:35;;;;;;;6.93;6.22;;;16.80;74.90;;;;;;4222986;27;20180;-62
2024/01/26 06:35:16;;;;;;;7.30;6.70;;;16.80;74.70;;;;;;4221792;27;20057;-62
2024/01/26 06:37:58;;;;;;;6.80;6.13;;;16.80;74.70;;;;;;4223089;27;20509;-50
2024/01/26 06:40:39;;;;;;;10.68;6.63;;;16.80;74.60;;;;;;4223193;27;20058;-48
2024/01/26 06:43:21;;;;;;;7.95;6.85;;;16.80;74.70;;;;;;4205671;27;20058;-49
2024/01/26 06:46:03;;;;;;;7.35;6.65;;;16.80;74.60;;;;;;4205798;27;20494;-51
2024/01/26 06:48:43;;;;;;;6.53;5.93;;;16.90;74.80;;;;;;4204362;27;20078;-63
2024/01/26 06:51:24;;;;;;;6.03;5.43;;;16.80;74.80;;;;;;4205587;28;20047;-63
2024/01/26 06:54:06;;;;;;;7.13;6.25;;;16.80;74.90;;;;;;4189411;28;20105;-62
2024/01/26 06:56:47;;;;;;;6.80;6.07;;;16.70;75.10;;;;;;4206056;28;20051;-61
2024/01/26 06:59:29;;;;;;;6.78;5.25;;;16.80;75.20;;;;;;4189064;28;20059;-62
2024/01/26 07:02:11;;;;;;;6.43;5.70;;;16.90;75.40;;;;;;4205738;28;20117;-63
2024/01/26 07:04:52;;;;;;;6.78;6.18;;;17.00;75.20;;;;;;4215727;27;20095;-62
2024/01/26 07:07:33;;;;;;;6.22;5.78;;;17.10;74.90;;;;;;4208005;27;20054;-62
2024/01/26 07:10:14;;;;;;;6.32;5.35;;;17.10;74.60;;;;;;4205722;28;20687;-62
2024/01/26 07:12:55;;;;;;;5.75;4.68;;;17.10;74.60;;;;;;4211051;27;20543;-62
2024/01/26 07:15:37;;;;;;;5.43;4.97;;;17.00;74.60;;;;;;4212125;27;20074;-62
2024/01/26 07:18:18;;;;;;;5.55;4.75;;;17.00;74.70;;;;;;4221919;27;20136;-61
2024/01/26 07:20:59;;;;;;;4.95;4.55;;;17.10;74.60;;;;;;4239251;27;20069;-62
2024/01/26 07:23:40;;;;;;;4.55;4.13;;;17.00;74.40;;;;;;4219088;27;20051;-62
2024/01/26 07:26:22;;;;;;;4.20;3.83;;;17.10;74.40;;;;;;4222445;27;20165;-62
2024/01/26 07:29:03;;;;;;;4.18;3.80;;;17.10;74.50;;;;;;4222443;27;20192;-62
2024/01/26 07:31:46;;;;;;;5.93;3.42;;;17.00;74.60;;;;;;4221676;27;20484;-58
2024/01/26 07:34:27;;;;;;;3.72;3.42;;;17.00;74.70;;;;;;4204042;28;20096;-57
2024/01/26 07:37:11;;;;;;;3.55;3.25;;;17.00;75.00;;;;;;4204936;28;20063;-58
2024/01/26 07:39:52;;;;;;;3.97;3.67;;;17.00;75.00;;;;;;4204945;28;20058;-58
2024/01/26 07:42:33;;;;;;;3.50;3.20;;;17.00;74.80;;;;;;4204983;28;20054;-45
2024/01/26 07:45:14;;;;;;;2.85;2.65;;;17.10;74.90;;;;;;4204528;28;20386;-59
2024/01/26 07:47:57;;;;;;;4.03;3.30;;;17.10;75.00;;;;;;4204250;28;20108;-60
2024/01/26 07:50:38;;;;;;;2.00;1.90;;;17.10;75.30;;;;;;4204504;28;20046;-59
2024/01/26 07:53:19;;;;;;;3.67;2.67;;;17.00;75.50;;;;;;4204458;28;20109;-59
2024/01/26 07:56:00;;;;;;;2.95;2.75;;;17.00;75.90;;;;;;4204647;28;20062;-47
2024/01/26 07:58:43;;;;;;;2.75;2.55;;;17.00;75.80;;;;;;4204909;28;20079;-47
2024/01/26 08:01:24;;;;;;;2.30;2.20;;;17.10;75.70;;;;;;4203224;28;20047;-47
2024/01/26 08:04:06;;;;;;;2.35;2.25;;;17.10;75.40;;;;;;4204250;28;20493;-47
2024/01/26 08:06:48;;;;;;;2.15;1.95;;;17.10;75.30;;;;;;4212183;27;20081;-47
2024/01/26 08:09:28;;;;;;;2.30;2.20;;;17.20;75.10;;;;;;4212870;27;20061;-50
2024/01/26 08:12:10;;;;;;;2.30;2.20;;;17.20;75.20;;;;;;4220967;27;20075;-48
2024/01/26 08:14:57;;;;;;;2.50;2.30;;;17.20;75.20;;;;;;4210199;27;20047;-48
2024/01/26 08:17:38;;;;;;;2.13;2.03;;;17.20;75.30;;;;;;4190081;27;20055;-50
2024/01/26 08:20:20;;;;;;;1.90;1.80;;;17.10;75.50;;;;;;4207574;27;20505;-47
2024/01/26 08:23:01;;;;;;;1.90;1.80;;;17.00;75.60;;;;;;4218985;27;20533;-49
2024/01/26 08:25:43;;;;;;;2.13;2.03;;;17.00;76.00;;;;;;4207672;27;20059;-49
2024/01/26 08:28:24;;;;;;;1.40;1.30;;;16.90;76.50;;;;;;4218054;27;20078;-49
2024/01/26 08:31:06;;;;;;;1.30;1.30;;;16.80;77.00;;;;;;4215332;27;20047;-50
2024/01/26 08:33:46;;;;;;;;;;;16.80;77.50;;;;;;4200557;27;20051;-51
2024/01/26 08:36:29;;;;;;;1.80;1.70;;;16.80;77.80;;;;;;4191430;27;20421;-47
2024/01/26 08:39:12;;;;;;;2.10;2.00;;;16.80;77.70;;;;;;4218277;27;20062;-48
2024/01/26 08:41:55;;;;;;;1.50;1.40;;;16.90;77.60;;;;;;4215369;27;20071;-47
2024/01/26 08:44:36;;;;;;;1.05;1.02;;;16.90;77.40;;;;;;4218535;27;20501;-48
2024/01/26 08:47:17;;;;;;;1.40;1.38;;;17.00;77.20;;;;;;4214720;27;20501;-48
2024/01/26 08:49:58;;;;;;;0.98;0.98;;;17.00;77.10;;;;;;4203607;28;20722;-47
2024/01/26 08:52:40;;;;;;;0.90;0.90;;;17.00;77.20;;;;;;4203574;28;20050;-47
2024/01/26 08:55:21;;;;;;;1.05;0.98;;;17.00;77.30;;;;;;4187596;28;20062;-50
2024/01/26 08:58:02;;;;;;;1.00;0.88;;;17.00;77.50;;;;;;4187747;28;20051;-49
2024/01/26 09:00:44;;;;;;;1.33;1.20;;;17.00;77.60;;;;;;4191090;27;20062;-47
2024/01/26 09:03:26;;;;;;;2.22;1.40;;;17.00;77.50;;;;;;4200363;27;20066;-48
2024/01/26 09:06:08;;;;;;;1.30;1.20;;;17.00;77.20;;;;;;4203283;28;20058;-47
2024/01/26 09:08:50;;;;;;;1.63;1.50;;;17.00;77.10;;;;;;4203534;28;20059;-58
2024/01/26 09:11:31;;;;;;;1.75;1.02;;;17.00;77.00;;;;;;4203568;28;20067;-59
2024/01/26 09:14:12;;;;;;;5.97;1.90;;;17.00;77.10;;;;;;4203927;28;20051;-58
2024/01/26 09:16:54;;;;;;;2.63;1.45;;;17.00;77.10;;;;;;4186219;28;20051;-59
2024/01/26 09:19:35;;;;;;;2.03;1.20;;;16.90;77.10;;;;;;4197277;28;20051;-58
2024/01/26 09:22:16;;;;;;;2.55;1.80;;;16.90;77.10;;;;;;4217336;27;20047;-58
2024/01/26 09:24:59;;;;;;;3.28;1.67;;;16.90;77.20;;;;;;4208104;28;20051;-58
2024/01/26 09:27:39;;;;;;;2.78;1.33;;;16.80;77.30;;;;;;4215623;27;20453;-59
2024/01/26 09:30:21;;;;;;;1.45;1.00;;;16.80;77.50;;;;;;4206380;27;20501;-58
2024/01/26 09:33:04;;;;;;;1.58;0.93;;;16.70;77.40;;;;;;4236285;27;20050;-58
2024/01/26 09:35:46;;;;;;;2.42;0.98;;;16.70;77.50;;;;;;4239738;27;20068;-49
2024/01/26 09:38:27;;;;;;;2.75;0.80;;;16.70;77.50;;;;;;4241185;27;20509;-49
2024/01/26 09:41:09;;;;;;;1.08;0.52;;;16.60;77.30;;;;;;4195601;28;20063;-59
2024/01/26 09:43:50;;;;;;;1.83;0.70;;;16.60;77.10;;;;;;4200754;28;20042;-58
2024/01/26 09:46:31;;;;;;;2.10;1.20;;;16.50;77.10;;;;;;4212556;28;20055;-58
2024/01/26 09:49:12;;;;;;;2.05;0.98;;;16.50;77.60;;;;;;4206519;28;20063;-58
2024/01/26 09:51:53;;;;;;;2.33;0.95;;;16.40;76.80;;;;;;4206642;28;20058;-59
2024/01/26 09:54:35;;;;;;;4.63;1.48;;;16.40;77.10;;;;;;4212007;27;20051;-58
2024/01/26 09:57:20;;;;;;;3.37;1.03;;;16.30;77.10;;;;;;4206874;28;20059;-58
2024/01/26 10:00:01;;;;;;;4.97;1.05;;;16.30;77.10;;;;;;4221031;27;20704;-58
2024/01/26 10:02:44;;;;;;;3.13;1.00;;;16.30;77.10;;;;;;4208614;27;20059;-58
2024/01/26 10:05:25;;;;;;;5.32;1.30;;;16.20;77.10;;;;;;4207435;27;20609;-58
2024/01/26 10:08:08;;;;;;;4.95;1.95;;;16.20;77.00;;;;;;4210459;27;20051;-58
2024/01/26 10:10:49;;;;;;;10.63;2.25;;;16.10;76.70;;;;;;4207126;27;20165;-56
2024/01/26 10:13:32;;;;;;;6.57;1.30;;;16.10;76.90;;;;;;4215804;27;20080;-58
2024/01/26 10:16:13;;;;;;;6.18;1.80;;;16.10;77.10;;;;;;4206099;28;20412;-58
2024/01/26 10:18:54;;;;;;;7.20;1.92;;;16.00;77.00;;;;;;4206715;28;20051;-58
2024/01/26 10:21:36;;;;;;;10.48;2.78;;;16.00;77.00;;;;;;4209466;27;20375;-58
2024/01/26 10:24:19;;;;;;;10.70;2.55;;;15.90;76.80;;;;;;4217187;27;20189;-57
2024/01/26 10:27:00;;;;;;;9.52;2.15;;;15.90;76.90;;;;;;4205551;27;20054;-57
2024/01/26 10:29:44;;;;;;;9.63;1.98;;;15.80;76.70;;;;;;4205743;27;20058;-59
2024/01/26 10:32:28;;;;;;;12.57;2.00;;;15.80;76.80;;;;;;4222688;27;20043;-59
2024/01/26 10:35:10;;;;;;;4.93;1.52;;;15.80;77.50;;;;;;4222751;27;20095;-51
2024/01/26 10:37:51;;;;;;;;;;;15.70;76.90;;;;;;4206375;28;20051;-47
2024/01/26 10:40:32;;;;;;;6.88;1.98;;;15.70;77.10;;;;;;4206949;27;19935;-50
2024/01/26 10:43:14;;;;;;;12.55;2.30;;;15.70;77.80;;;;;;4195610;28;20050;-50
2024/01/26 10:45:57;;;;;;;;;;;15.70;78.50;;;;;;4191343;27;20052;-51
2024/01/26 10:48:38;;;;;;;8.63;1.92;;;15.60;78.10;;;;;;4189540;28;20383;-51
2024/01/26 10:51:21;;;;;;;22.38;2.88;;;15.60;78.90;;;;;;4220914;27;20088;-47
2024/01/26 10:54:08;;;;;;;9.30;2.67;;;15.50;79.00;;;;;;4213677;27;20407;-51
2024/01/26 10:56:50;;;;;;;18.85;2.05;;;15.60;79.10;;;;;;4206797;27;20051;-47
2024/01/26 10:59:32;;;;;;;7.40;1.73;;;15.60;79.00;;;;;;4220733;27;20058;-49
2024/01/26 11:02:17;;;;;;;11.05;2.80;;;15.60;79.00;;;;;;4222551;27;20058;-49
2024/01/26 11:04:59;;;;;;;21.42;5.00;;;15.70;78.70;;;;;;4222580;27;20403;-51
2024/01/26 11:07:40;;;;;;;9.00;2.50;;;15.60;78.80;;;;;;4216214;27;20043;-59
2024/01/26 11:10:25;;;;;;;12.02;2.38;;;15.70;78.80;;;;;;4221271;27;20643;-59
2024/01/26 11:13:09;;;;;;;11.75;2.78;;;15.60;78.60;;;;;;4214633;27;20513;-59
2024/01/26 11:15:49;;;;;;;10.00;2.53;;;15.60;78.30;;;;;;4205333;28;20055;-60
2024/01/26 11:18:35;;;;;;;10.85;2.97;;;15.60;78.30;;;;;;4205624;27;20054;-58
2024/01/26 11:21:19;;;;;;;12.27;3.15;;;15.60;78.80;;;;;;4206459;27;20129;-59
2024/01/26 11:24:12;;;;;;;14.48;3.60;;;15.50;78.90;;;;;;4222330;27;20047;-60
2024/01/26 11:26:57;;;;;;;15.45;3.42;;;15.50;79.00;;;;;;4212440;27;20510;-59
2024/01/26 11:29:40;;;;;;;10.13;2.17;;;15.50;79.30;;;;;;4204901;28;20104;-59
2024/01/26 11:32:24;;;;;;;12.65;2.97;;;15.60;79.30;;;;;;4205092;28;20047;-59
2024/01/26 11:35:16;;;;;;;9.90;2.38;;;15.50;79.20;;;;;;4205117;28;20055;-60
2024/01/26 11:37:57;;;;;;;10.70;2.85;;;15.50;78.50;;;;;;4206210;27;20444;-57
2024/01/26 11:40:39;;;;;;;13.43;3.05;;;15.50;78.70;;;;;;4204457;28;20071;-59
2024/01/26 11:43:21;;;;;;;;;;;15.60;79.00;;;;;;4214928;27;20054;-59
2024/01/26 11:46:03;;;;;;;;;;;15.60;78.90;;;;;;4222310;27;19944;-48
2024/01/26 11:48:43;;;;;;;12.80;3.05;;;15.70;78.80;;;;;;4221354;27;19984;-47
2024/01/26 11:51:26;;;;;;;13.00;3.35;;;15.70;78.60;;;;;;4220189;27;20047;-48
2024/01/26 11:54:07;;;;;;;20.63;3.90;;;15.70;78.40;;;;;;4221145;27;20107;-48
2024/01/26 11:56:48;;;;;;;16.35;3.10;;;15.70;78.00;;;;;;4207061;27;20506;-48
2024/01/26 11:59:30;;;;;;;13.80;3.50;;;15.80;77.30;;;;;;4221248;27;20050;-47
2024/01/26 12:02:12;;;;;;;17.55;5.10;;;15.80;77.10;;;;;;4220668;27;20050;-47
2024/01/26 12:04:53;;;;;;;11.55;3.08;;;15.80;77.20;;;;;;4219743;27;20209;-47
2024/01/26 12:07:36;;;;;;;13.77;2.05;;;15.80;77.10;;;;;;4221290;27;20103;-47
2024/01/26 12:10:17;;;;;;;13.30;2.97;;;15.80;76.70;;;;;;4211374;27;20055;-50
2024/01/26 12:12:58;;;;;;;13.45;2.78;;;15.80;76.50;;;;;;4203717;28;20148;-48
2024/01/26 12:15:39;;;;;;;13.02;3.28;;;15.80;76.80;;;;;;4204588;28;20125;-51
2024/01/26 12:18:23;;;;;;;9.50;2.88;;;15.80;76.80;;;;;;4204564;28;20059;-50
2024/01/26 12:21:04;;;;;;;17.42;3.08;;;15.90;76.20;;;;;;4204288;28;20047;-49
2024/01/26 12:23:50;;;;;;;10.82;2.15;;;15.90;76.00;;;;;;4204697;28;20555;-50
2024/01/26 12:26:32;;;;;;;18.52;3.03;;;15.80;76.50;;;;;;4212423;27;20201;-51
2024/01/26 12:29:13;;;;;;;12.27;3.05;;;15.80;76.50;;;;;;4213628;27;20055;-48
2024/01/26 12:32:02;;;;;;;16.92;4.38;;;15.80;76.60;;;;;;4211394;27;20047;-60
2024/01/26 12:34:43;;;;;;;12.85;2.60;;;15.70;77.20;;;;;;4204319;27;20133;-58
2024/01/26 12:37:24;;;;;;;13.05;2.88;;;15.70;77.80;;;;;;4195805;27;20051;-59
2024/01/26 12:40:08;;;;;;;15.32;3.00;;;15.70;78.10;;;;;;4202212;27;20055;-47
2024/01/26 12:42:50;;;;;;;12.18;2.85;;;15.70;77.60;;;;;;4185377;27;20090;-58
2024/01/26 12:45:30;;;;;;;9.13;2.22;;;15.70;77.60;;;;;;4219807;27;20501;-58
2024/01/26 12:48:11;;;;;;;13.13;2.85;;;15.80;77.30;;;;;;4219731;27;20100;-58
2024/01/26 12:50:53;;;;;;;8.15;2.08;;;15.70;77.40;;;;;;4216885;27;20096;-58
2024/01/26 12:53:51;;;;;;;17.58;3.13;;;15.70;77.30;;;;;;4212611;27;20128;-58
2024/01/26 12:56:34;;;;;;;11.90;2.88;;;15.70;77.20;;;;;;4218371;28;20053;-59
2024/01/26 12:59:15;;;;;;;14.32;2.60;;;15.80;77.50;;;;;;4203690;28;20054;-59
2024/01/26 13:01:56;;;;;;;17.48;2.88;;;15.80;77.30;;;;;;4204124;27;20053;-47
2024/01/26 13:04:38;;;;;;;13.40;2.50;;;15.80;77.20;;;;;;4202811;28;20186;-47
2024/01/26 13:07:20;;;;;;;11.88;2.58;;;15.80;77.40;;;;;;4185477;28;20067;-47
2024/01/26 13:10:01;;;;;;;15.38;2.88;;;15.80;77.50;;;;;;4196552;28;20051;-47
2024/01/26 13:12:43;;;;;;;14.35;3.15;;;15.80;77.20;;;;;;4202394;28;20128;-48
2024/01/26 13:15:25;;;;;;;11.88;2.90;;;15.80;77.80;;;;;;4219346;27;20074;-46
2024/01/26 13:18:07;;;;;;;11.95;2.63;;;15.70;77.70;;;;;;4203835;28;20063;-47
2024/01/26 13:20:57;;;;;;;11.45;2.97;;;15.70;77.00;;;;;;4203254;28;20112;-47
2024/01/26 13:23:38;;;;;;;7.90;2.10;;;15.60;76.90;;;;;;4203589;28;20193;-48
2024/01/26 13:26:19;;;;;;;22.95;2.88;;;15.60;76.60;;;;;;4218777;27;20058;-47
2024/01/26 13:29:01;;;;;;;13.52;3.95;;;15.60;77.20;;;;;;4212712;27;20103;-48
2024/01/26 13:31:42;;;;;;;12.73;1.80;;;15.50;77.90;;;;;;4203341;28;20814;-51
2024/01/26 13:34:23;;;;;;;11.55;2.28;;;15.50;78.10;;;;;;4203739;28;20051;-51
2024/01/26 13:37:04;;;;;;;12.73;2.28;;;15.50;79.30;;;;;;4203527;28;20051;-49
2024/01/26 13:39:46;;;;;;;12.05;2.28;;;15.40;79.60;;;;;;4203327;28;20078;-49
2024/01/26 13:42:27;;;;;;;12.65;1.98;;;15.40;80.50;;;;;;4202767;28;20051;-49
2024/01/26 13:45:11;;;;;;;9.00;2.17;;;15.40;80.80;;;;;;4208834;27;20082;-50
2024/01/26 13:47:53;;;;;;;9.70;2.40;;;15.30;80.70;;;;;;4218542;27;20046;-61
2024/01/26 13:50:38;;;;;;;17.83;2.22;;;15.30;80.70;;;;;;4220346;27;20051;-61
2024/01/26 13:53:21;;;;;;;12.52;2.22;;;15.30;80.70;;;;;;4225546;27;20089;-61
2024/01/26 13:56:02;;;;;;;7.25;1.83;;;15.30;81.10;;;;;;4203363;28;20055;-61